メインページ
METAR-TAF:

METAR-TAF

空港 :

North Central State Airport

ポータケット, ロードアイランド州, アメリカ合衆国

緯度: 41-55N, 経度: 071-30W, 海抜: 134m

現時点の気象観測

当レポートは42分前の17:56(UTC)に作成
変向風 5kt
気温 27°C
湿度 54%
気圧 1023 hPa
視程: 16.1km
高度4000ftの雲はほとんどない

METAR: KSFZ 261756Z AUTO VRB05KT 10SM FEW040 27/17 A3020 RMK AO2 SLP170 T02670172 10267 20178 58007

時間: 14:38 (18:38 UTC)


TAF: 見つかりません

4,000以上の空港の気象観測と天気予報(METAR報とTAF報)

利用可能な観測所は地図上に黄色い丸と赤い丸で示す。

丸の上にカーソルを重ねると観測所名を参照できる。

次にクリックすると気象観測と天気予報を参照できる。

マップの切り替え:黒色「×」印の緑ボタンをクリックして拡大、「-」印の緑ボタンをクリックして縮小、緑色の三角印をクリックして隣りの地図に切り替え


METAR-TAF: